sensor_id;sensor_type;location;lat;lon;timestamp;pressure;altitude;pressure_sealevel;temperature;humidity
60820;BME280;46641;48.904;9.126;2023-02-18T00:03:33;99480.97;;;15.01;57.86
60820;BME280;46641;48.904;9.126;2023-02-18T00:08:24;99472.41;;;14.99;58.06
60820;BME280;46641;48.904;9.126;2023-02-18T00:13:14;99470.72;;;14.98;57.86
60820;BME280;46641;48.904;9.126;2023-02-18T00:18:05;99474.19;;;14.98;57.92
60820;BME280;46641;48.904;9.126;2023-02-18T00:22:55;99472.53;;;14.97;57.86
60820;BME280;46641;48.904;9.126;2023-02-18T00:27:46;99468.09;;;14.98;57.95
60820;BME280;46641;48.904;9.126;2023-02-18T00:32:36;99469.09;;;14.96;57.92
60820;BME280;46641;48.904;9.126;2023-02-18T00:37:26;99448.97;;;14.95;57.94
60820;BME280;46641;48.904;9.126;2023-02-18T00:42:17;99442.03;;;14.94;57.80
60820;BME280;46641;48.904;9.126;2023-02-18T00:47:07;99446.47;;;14.94;57.87
60820;BME280;46641;48.904;9.126;2023-02-18T00:51:57;99452.56;;;14.94;58.09
60820;BME280;46641;48.904;9.126;2023-02-18T00:56:48;99448.16;;;14.95;57.85
60820;BME280;46641;48.904;9.126;2023-02-18T01:01:38;99447.31;;;14.94;57.91
60820;BME280;46641;48.904;9.126;2023-02-18T01:06:29;99447.31;;;14.94;57.92
60820;BME280;46641;48.904;9.126;2023-02-18T01:11:20;99445.66;;;14.93;57.78
60820;BME280;46641;48.904;9.126;2023-02-18T01:16:10;99444.00;;;14.92;57.67
60820;BME280;46641;48.904;9.126;2023-02-18T01:21:00;99444.00;;;14.92;57.75
60820;BME280;46641;48.904;9.126;2023-02-18T01:25:51;99429.16;;;14.91;57.79
60820;BME280;46641;48.904;9.126;2023-02-18T01:30:41;99425.88;;;14.89;57.65
60820;BME280;46641;48.904;9.126;2023-02-18T01:35:32;99426.84;;;14.88;57.63
60820;BME280;46641;48.904;9.126;2023-02-18T01:40:25;99431.28;;;14.88;57.74
60820;BME280;46641;48.904;9.126;2023-02-18T01:50:25;99424.34;;;14.87;57.84
60820;BME280;46641;48.904;9.126;2023-02-18T01:55:16;99435.72;;;14.87;57.77
60820;BME280;46641;48.904;9.126;2023-02-18T02:00:09;99423.53;;;14.86;57.89
60820;BME280;46641;48.904;9.126;2023-02-18T02:05:01;99426.84;;;14.88;57.88
60820;BME280;46641;48.904;9.126;2023-02-18T02:09:53;99435.88;;;14.86;57.82
60820;BME280;46641;48.904;9.126;2023-02-18T02:15:03;99430.44;;;14.87;57.59
60820;BME280;46641;48.904;9.126;2023-02-18T02:25:37;99407.03;;;14.84;57.61
60820;BME280;46641;48.904;9.126;2023-02-18T02:35:45;99405.38;;;14.83;57.88
60820;BME280;46641;48.904;9.126;2023-02-18T02:46:02;99391.38;;;14.83;58.04
60820;BME280;46641;48.904;9.126;2023-02-18T02:56:23;99395.16;;;14.80;57.38
60820;BME280;46641;48.904;9.126;2023-02-18T03:01:34;99388.88;;;14.81;57.54
60820;BME280;46641;48.904;9.126;2023-02-18T03:11:31;99380.03;;;14.82;57.53
60820;BME280;46641;48.904;9.126;2023-02-18T03:16:35;99373.91;;;14.82;57.33
60820;BME280;46641;48.904;9.126;2023-02-18T03:21:33;99358.09;;;14.82;57.43
60820;BME280;46641;48.904;9.126;2023-02-18T03:26:28;99366.84;;;14.82;57.53
60820;BME280;46641;48.904;9.126;2023-02-18T03:31:22;99355.31;;;14.83;57.75
60820;BME280;46641;48.904;9.126;2023-02-18T03:36:16;99366.69;;;14.84;57.66
60820;BME280;46641;48.904;9.126;2023-02-18T03:41:07;99358.94;;;14.82;57.46
60820;BME280;46641;48.904;9.126;2023-02-18T03:45:57;99381.66;;;14.83;57.63
60820;BME280;46641;48.904;9.126;2023-02-18T03:50:48;99379.84;;;14.84;57.48
60820;BME280;46641;48.904;9.126;2023-02-18T03:55:38;99370.44;;;14.81;57.54
60820;BME280;46641;48.904;9.126;2023-02-18T04:00:29;99380.03;;;14.82;57.80
60820;BME280;46641;48.904;9.126;2023-02-18T04:05:19;99360.59;;;14.83;57.55
60820;BME280;46641;48.904;9.126;2023-02-18T04:10:10;99358.78;;;14.84;57.84
60820;BME280;46641;48.904;9.126;2023-02-18T04:15:00;99347.41;;;14.83;57.73
60820;BME280;46641;48.904;9.126;2023-02-18T04:19:50;99351.03;;;14.82;57.58
60820;BME280;46641;48.904;9.126;2023-02-18T04:24:41;99352.00;;;14.81;57.80
60820;BME280;46641;48.904;9.126;2023-02-18T04:29:31;99346.88;;;14.80;57.78
60820;BME280;46641;48.904;9.126;2023-02-18T04:34:21;99350.50;;;14.79;57.90
60820;BME280;46641;48.904;9.126;2023-02-18T04:39:12;99347.72;;;14.80;57.71
60820;BME280;46641;48.904;9.126;2023-02-18T04:44:02;99358.09;;;14.82;57.81
60820;BME280;46641;48.904;9.126;2023-02-18T04:48:52;99349.34;;;14.81;57.53
60820;BME280;46641;48.904;9.126;2023-02-18T04:53:43;99363.53;;;14.80;57.83
60820;BME280;46641;48.904;9.126;2023-02-18T04:58:33;99350.34;;;14.80;57.58
60820;BME280;46641;48.904;9.126;2023-02-18T05:03:23;99347.88;;;14.79;57.89
60820;BME280;46641;48.904;9.126;2023-02-18T05:08:14;99357.56;;;14.78;57.65
60820;BME280;46641;48.904;9.126;2023-02-18T05:13:05;99362.00;;;14.78;57.91
60820;BME280;46641;48.904;9.126;2023-02-18T05:17:55;99350.66;;;14.77;57.95
60820;BME280;46641;48.904;9.126;2023-02-18T05:22:46;99344.69;;;14.75;57.69
60820;BME280;46641;48.904;9.126;2023-02-18T05:27:36;99344.88;;;14.73;57.86
60820;BME280;46641;48.904;9.126;2023-02-18T05:32:26;99340.41;;;14.74;57.63
60820;BME280;46641;48.904;9.126;2023-02-18T05:37:17;99334.31;;;14.73;58.01
60820;BME280;46641;48.904;9.126;2023-02-18T05:42:07;99341.53;;;14.71;57.95
60820;BME280;46641;48.904;9.126;2023-02-18T05:47:02;99346.81;;;14.71;58.03
60820;BME280;46641;48.904;9.126;2023-02-18T05:51:53;99348.78;;;14.69;58.24
60820;BME280;46641;48.904;9.126;2023-02-18T05:56:43;99349.91;;;14.67;58.17
60820;BME280;46641;48.904;9.126;2023-02-18T06:01:34;99336.88;;;14.65;58.27
60820;BME280;46641;48.904;9.126;2023-02-18T06:06:24;99335.25;;;14.64;57.89
60820;BME280;46641;48.904;9.126;2023-02-18T06:11:14;99345.25;;;14.61;58.27
60820;BME280;46641;48.904;9.126;2023-02-18T06:16:05;99364.38;;;14.63;58.07
60820;BME280;46641;48.904;9.126;2023-02-18T06:20:55;99347.06;;;14.60;58.13
60820;BME280;46641;48.904;9.126;2023-02-18T06:25:48;99345.44;;;14.59;58.21
60820;BME280;46641;48.904;9.126;2023-02-18T06:30:39;99343.75;;;14.58;58.50
60820;BME280;46641;48.904;9.126;2023-02-18T06:35:30;99341.28;;;14.57;58.31
60820;BME280;46641;48.904;9.126;2023-02-18T06:40:20;99349.19;;;14.57;58.49
60820;BME280;46641;48.904;9.126;2023-02-18T06:45:11;99352.78;;;14.56;58.30
60820;BME280;46641;48.904;9.126;2023-02-18T06:50:02;99350.16;;;14.56;58.34
60820;BME280;46641;48.904;9.126;2023-02-18T06:54:52;99359.03;;;14.55;58.36
60820;BME280;46641;48.904;9.126;2023-02-18T06:59:43;99354.59;;;14.55;58.54
60820;BME280;46641;48.904;9.126;2023-02-18T07:04:33;99344.22;;;14.54;58.54
60820;BME280;46641;48.904;9.126;2023-02-18T07:09:23;99348.66;;;14.53;58.39
60820;BME280;46641;48.904;9.126;2023-02-18T07:14:13;99344.22;;;14.54;58.52
60820;BME280;46641;48.904;9.126;2023-02-18T07:19:04;99334.63;;;14.53;58.18
60820;BME280;46641;48.904;9.126;2023-02-18T07:23:54;99333.00;;;14.52;58.66
60820;BME280;46641;48.904;9.126;2023-02-18T07:28:44;99329.38;;;14.53;58.62
60820;BME280;46641;48.904;9.126;2023-02-18T07:33:35;99308.97;;;14.55;58.33
60820;BME280;46641;48.904;9.126;2023-02-18T07:38:26;99310.94;;;14.53;58.45
60820;BME280;46641;48.904;9.126;2023-02-18T07:43:17;99317.88;;;14.54;58.42
60820;BME280;46641;48.904;9.126;2023-02-18T07:48:08;99303.56;;;14.56;58.70
60820;BME280;46641;48.904;9.126;2023-02-18T07:52:58;99300.78;;;14.58;58.27
60820;BME280;46641;48.904;9.126;2023-02-18T07:57:48;99305.22;;;14.57;58.47
60820;BME280;46641;48.904;9.126;2023-02-18T08:02:50;99305.22;;;14.57;58.52
60820;BME280;46641;48.904;9.126;2023-02-18T08:07:40;99308.53;;;14.59;58.47
60820;BME280;46641;48.904;9.126;2023-02-18T08:12:30;99317.28;;;14.60;58.29
60820;BME280;46641;48.904;9.126;2023-02-18T08:17:21;99308.38;;;14.61;58.09
60820;BME280;46641;48.904;9.126;2023-02-18T08:22:11;99311.69;;;14.63;58.27
60820;BME280;46641;48.904;9.126;2023-02-18T08:27:01;99297.66;;;14.62;58.23
60820;BME280;46641;48.904;9.126;2023-02-18T08:31:51;99289.47;;;14.65;58.34
60820;BME280;46641;48.904;9.126;2023-02-18T08:36:43;99295.59;;;14.66;58.22
60820;BME280;46641;48.904;9.126;2023-02-18T08:41:33;99298.72;;;14.69;58.38
60820;BME280;46641;48.904;9.126;2023-02-18T08:46:23;99299.56;;;14.70;58.06
60820;BME280;46641;48.904;9.126;2023-02-18T08:51:17;99299.06;;;14.75;57.74
60820;BME280;46641;48.904;9.126;2023-02-18T08:56:09;99289.34;;;14.75;58.03
60820;BME280;46641;48.904;9.126;2023-02-18T09:01:00;99287.41;;;14.77;57.58
60820;BME280;46641;48.904;9.126;2023-02-18T09:05:51;99281.00;;;14.80;57.65
60820;BME280;46641;48.904;9.126;2023-02-18T09:10:41;99289.56;;;14.82;57.90
60820;BME280;46641;48.904;9.126;2023-02-18T09:15:31;99289.44;;;14.83;57.92
60820;BME280;46641;48.904;9.126;2023-02-18T09:20:22;99275.44;;;14.83;58.08
60820;BME280;46641;48.904;9.126;2023-02-18T09:25:12;99271.78;;;14.84;57.97
60820;BME280;46641;48.904;9.126;2023-02-18T09:30:03;99272.31;;;14.87;58.18
60820;BME280;46641;48.904;9.126;2023-02-18T09:34:53;99268.72;;;14.88;58.15
60820;BME280;46641;48.904;9.126;2023-02-18T09:39:44;99275.47;;;14.91;58.17
60820;BME280;46641;48.904;9.126;2023-02-18T09:44:41;99255.56;;;14.96;57.74
60820;BME280;46641;48.904;9.126;2023-02-18T09:49:38;99264.16;;;14.99;57.93
60820;BME280;46641;48.904;9.126;2023-02-18T09:54:29;99277.16;;;15.00;57.87
60820;BME280;46641;48.904;9.126;2023-02-18T09:59:21;99260.03;;;15.04;57.87
60820;BME280;46641;48.904;9.126;2023-02-18T10:04:40;99277.34;;;15.07;57.52
60820;BME280;46641;48.904;9.126;2023-02-18T10:09:34;99262.72;;;15.12;57.06
60820;BME280;46641;48.904;9.126;2023-02-18T10:14:25;99281.69;;;15.16;56.72
60820;BME280;46641;48.904;9.126;2023-02-18T10:19:36;99276.94;;;15.19;57.08
60820;BME280;46641;48.904;9.126;2023-02-18T10:24:34;99277.75;;;15.20;56.32
60820;BME280;46641;48.904;9.126;2023-02-18T10:29:25;99269.53;;;15.23;56.49
60820;BME280;46641;48.904;9.126;2023-02-18T10:34:38;99268.38;;;15.26;56.51
60820;BME280;46641;48.904;9.126;2023-02-18T10:39:47;99276.13;;;15.27;56.31
60820;BME280;46641;48.904;9.126;2023-02-18T10:49:59;99265.63;;;15.35;56.11
60820;BME280;46641;48.904;9.126;2023-02-18T10:55:03;99253.13;;;15.37;56.17
60820;BME280;46641;48.904;9.126;2023-02-18T11:04:45;99252.94;;;15.39;56.16
60820;BME280;46641;48.904;9.126;2023-02-18T11:09:47;99245.38;;;15.44;55.94
60820;BME280;46641;48.904;9.126;2023-02-18T11:14:45;99253.78;;;15.48;56.08
60820;BME280;46641;48.904;9.126;2023-02-18T11:19:37;99242.44;;;15.47;56.17
60820;BME280;46641;48.904;9.126;2023-02-18T11:24:28;99240.13;;;15.52;56.18
60820;BME280;46641;48.904;9.126;2023-02-18T11:29:21;99237.97;;;15.56;55.63
60820;BME280;46641;48.904;9.126;2023-02-18T11:34:18;99247.75;;;15.63;55.33
60820;BME280;46641;48.904;9.126;2023-02-18T11:39:22;99231.91;;;15.63;54.54
60820;BME280;46641;48.904;9.126;2023-02-18T11:49:21;99226.59;;;15.47;54.52
60820;BME280;46641;48.904;9.126;2023-02-18T11:54:23;99215.56;;;15.60;54.92
60820;BME280;46641;48.904;9.126;2023-02-18T11:59:14;99208.38;;;15.70;55.25
60820;BME280;46641;48.904;9.126;2023-02-18T12:04:18;99221.88;;;15.75;54.76
60820;BME280;46641;48.904;9.126;2023-02-18T12:09:26;99203.59;;;15.74;54.35
60820;BME280;46641;48.904;9.126;2023-02-18T12:14:20;99206.88;;;15.76;55.31
60820;BME280;46641;48.904;9.126;2023-02-18T12:35:10;99207.34;;;15.79;54.17
60820;BME280;46641;48.904;9.126;2023-02-18T12:40:20;99212.16;;;15.84;54.73
60820;BME280;46641;48.904;9.126;2023-02-18T12:45:30;99215.47;;;15.86;54.63
60820;BME280;46641;48.904;9.126;2023-02-18T12:55:42;99199.63;;;15.86;54.22
60820;BME280;46641;48.904;9.126;2023-02-18T13:06:16;99193.84;;;15.91;55.25
60820;BME280;46641;48.904;9.126;2023-02-18T13:11:21;99182.28;;;15.92;55.21
60820;BME280;46641;48.904;9.126;2023-02-18T13:16:15;99171.09;;;15.89;54.61
60820;BME280;46641;48.904;9.126;2023-02-18T13:21:08;99177.69;;;15.94;54.73
60820;BME280;46641;48.904;9.126;2023-02-18T13:26:04;99160.50;;;15.98;54.68
60820;BME280;46641;48.904;9.126;2023-02-18T13:41:18;99137.75;;;15.97;55.21
60820;BME280;46641;48.904;9.126;2023-02-18T13:46:18;99136.41;;;16.01;54.53
60820;BME280;46641;48.904;9.126;2023-02-18T13:51:11;99129.31;;;16.01;55.21
60820;BME280;46641;48.904;9.126;2023-02-18T13:56:18;99121.88;;;16.05;54.34
60820;BME280;46641;48.904;9.126;2023-02-18T14:05:59;99119.91;;;16.07;54.24
60820;BME280;46641;48.904;9.126;2023-02-18T14:16:02;99116.13;;;16.09;54.60
60820;BME280;46641;48.904;9.126;2023-02-18T14:21:03;99114.97;;;16.12;54.36
60820;BME280;46641;48.904;9.126;2023-02-18T14:25:54;99112.16;;;16.13;55.02
60820;BME280;46641;48.904;9.126;2023-02-18T14:30:46;99115.44;;;16.16;54.76
60820;BME280;46641;48.904;9.126;2023-02-18T14:35:42;99119.88;;;16.15;54.88
60820;BME280;46641;48.904;9.126;2023-02-18T14:40:47;99126.00;;;16.16;54.79
60820;BME280;46641;48.904;9.126;2023-02-18T14:51:08;99108.34;;;16.08;55.12
60820;BME280;46641;48.904;9.126;2023-02-18T14:56:03;99117.94;;;16.09;54.84
60820;BME280;46641;48.904;9.126;2023-02-18T15:00:55;99124.38;;;16.06;54.63
60820;BME280;46641;48.904;9.126;2023-02-18T15:05:46;99135.56;;;16.08;54.59
60820;BME280;46641;48.904;9.126;2023-02-18T15:10:43;99118.28;;;16.06;54.33
60820;BME280;46641;48.904;9.126;2023-02-18T15:15:34;99130.00;;;16.03;54.69
60820;BME280;46641;48.904;9.126;2023-02-18T15:20:26;99128.16;;;16.04;55.52
60820;BME280;46641;48.904;9.126;2023-02-18T15:25:17;99142.03;;;16.06;55.20
60820;BME280;46641;48.904;9.126;2023-02-18T15:30:29;99131.31;;;15.99;54.54
60820;BME280;46641;48.904;9.126;2023-02-18T15:35:21;99132.28;;;15.98;55.04
60820;BME280;46641;48.904;9.126;2023-02-18T15:40:15;99128.69;;;15.99;54.98
60820;BME280;46641;48.904;9.126;2023-02-18T15:50:02;99113.97;;;16.05;55.69
60820;BME280;46641;48.904;9.126;2023-02-18T15:54:53;99113.97;;;16.05;54.91
60820;BME280;46641;48.904;9.126;2023-02-18T15:59:46;99108.69;;;16.05;55.32
60820;BME280;46641;48.904;9.126;2023-02-18T16:04:49;99107.72;;;16.06;55.17
60820;BME280;46641;48.904;9.126;2023-02-18T16:09:40;99100.44;;;16.08;54.83
60820;BME280;46641;48.904;9.126;2023-02-18T16:19:24;99087.56;;;16.05;54.88
60820;BME280;46641;48.904;9.126;2023-02-18T16:24:27;99092.84;;;16.05;54.60
60820;BME280;46641;48.904;9.126;2023-02-18T16:29:35;99087.56;;;16.05;54.59
60820;BME280;46641;48.904;9.126;2023-02-18T16:34:26;99091.69;;;16.07;55.16
60820;BME280;46641;48.904;9.126;2023-02-18T16:39:16;99102.44;;;16.06;55.11
60820;BME280;46641;48.904;9.126;2023-02-18T16:44:11;99105.06;;;16.06;54.79
60820;BME280;46641;48.904;9.126;2023-02-18T16:49:02;99108.69;;;16.05;54.92
60820;BME280;46641;48.904;9.126;2023-02-18T16:53:52;99120.25;;;16.04;54.66
60820;BME280;46641;48.904;9.126;2023-02-18T16:58:43;99117.94;;;16.01;54.76
60820;BME280;46641;48.904;9.126;2023-02-18T17:03:33;99124.38;;;15.98;54.88
60820;BME280;46641;48.904;9.126;2023-02-18T17:08:25;99131.66;;;15.96;54.74
60820;BME280;46641;48.904;9.126;2023-02-18T17:13:18;99141.41;;;15.96;54.87
60820;BME280;46641;48.904;9.126;2023-02-18T17:18:09;99146.00;;;15.94;54.84
60820;BME280;46641;48.904;9.126;2023-02-18T17:23:00;99139.22;;;15.91;54.58
60820;BME280;46641;48.904;9.126;2023-02-18T17:27:51;99147.00;;;15.84;55.10
60820;BME280;46641;48.904;9.126;2023-02-18T17:32:42;99159.38;;;15.84;54.56
60820;BME280;46641;48.904;9.126;2023-02-18T17:37:32;99160.84;;;15.78;54.86
60820;BME280;46641;48.904;9.126;2023-02-18T17:42:23;99168.28;;;15.75;54.83
60820;BME280;46641;48.904;9.126;2023-02-18T17:47:13;99193.16;;;15.72;55.33
60820;BME280;46641;48.904;9.126;2023-02-18T17:52:04;99198.31;;;15.74;55.26
60820;BME280;46641;48.904;9.126;2023-02-18T17:56:54;99197.31;;;15.75;55.32
60820;BME280;46641;48.904;9.126;2023-02-18T18:01:44;99195.34;;;15.77;55.18
60820;BME280;46641;48.904;9.126;2023-02-18T18:06:35;99198.31;;;15.74;55.31
60820;BME280;46641;48.904;9.126;2023-02-18T18:11:25;99205.53;;;15.72;55.23
60820;BME280;46641;48.904;9.126;2023-02-18T18:16:16;99201.75;;;15.74;55.22
60820;BME280;46641;48.904;9.126;2023-02-18T18:21:18;99207.03;;;15.74;54.76
60820;BME280;46641;48.904;9.126;2023-02-18T18:26:10;99219.56;;;15.72;55.43
60820;BME280;46641;48.904;9.126;2023-02-18T18:31:00;99216.28;;;15.70;55.42
60820;BME280;46641;48.904;9.126;2023-02-18T18:35:52;99221.19;;;15.65;55.44
60820;BME280;46641;48.904;9.126;2023-02-18T18:40:43;99227.28;;;15.65;55.42
60820;BME280;46641;48.904;9.126;2023-02-18T18:45:35;99234.38;;;15.65;55.37
60820;BME280;46641;48.904;9.126;2023-02-18T18:50:29;99245.09;;;15.63;55.55
60820;BME280;46641;48.904;9.126;2023-02-18T18:55:33;99238.97;;;15.63;55.62
60820;BME280;46641;48.904;9.126;2023-02-18T19:00:31;99244.75;;;15.58;55.49
60820;BME280;46641;48.904;9.126;2023-02-18T19:05:29;99242.28;;;15.57;55.30
60820;BME280;46641;48.904;9.126;2023-02-18T19:10:21;99241.44;;;15.48;56.33
60820;BME280;46641;48.904;9.126;2023-02-18T19:15:17;99237.91;;;15.31;57.25
60820;BME280;46641;48.904;9.126;2023-02-18T19:20:12;99244.00;;;15.32;57.57
60820;BME280;46641;48.904;9.126;2023-02-18T19:25:03;99249.78;;;15.35;57.81
60820;BME280;46641;48.904;9.126;2023-02-18T19:29:53;99259.34;;;15.36;57.71
60820;BME280;46641;48.904;9.126;2023-02-18T19:34:45;99264.63;;;15.36;58.10
60820;BME280;46641;48.904;9.126;2023-02-18T19:39:35;99257.53;;;15.37;58.13
60820;BME280;46641;48.904;9.126;2023-02-18T19:44:25;99261.03;;;15.37;58.13
60820;BME280;46641;48.904;9.126;2023-02-18T19:49:16;99261.66;;;15.39;58.11
60820;BME280;46641;48.904;9.126;2023-02-18T19:54:06;99260.72;;;15.40;58.19
60820;BME280;46641;48.904;9.126;2023-02-18T19:58:56;99258.06;;;15.40;58.42
60820;BME280;46641;48.904;9.126;2023-02-18T20:03:47;99255.56;;;15.39;57.82
60820;BME280;46641;48.904;9.126;2023-02-18T20:08:37;99262.97;;;15.35;58.07
60820;BME280;46641;48.904;9.126;2023-02-18T20:13:28;99265.25;;;15.30;58.43
60820;BME280;46641;48.904;9.126;2023-02-18T20:18:18;99260.47;;;15.26;58.72
60820;BME280;46641;48.904;9.126;2023-02-18T20:23:08;99263.09;;;15.26;58.66
60820;BME280;46641;48.904;9.126;2023-02-18T20:27:59;99257.34;;;15.22;58.78
60820;BME280;46641;48.904;9.126;2023-02-18T20:32:49;99253.06;;;15.21;58.74
60820;BME280;46641;48.904;9.126;2023-02-18T20:37:40;99259.78;;;15.15;58.88
60820;BME280;46641;48.904;9.126;2023-02-18T20:42:30;99251.31;;;15.04;58.90
60820;BME280;46641;48.904;9.126;2023-02-18T20:47:21;99242.22;;;14.98;59.10
60820;BME280;46641;48.904;9.126;2023-02-18T20:52:11;99251.13;;;14.97;59.31
60820;BME280;46641;48.904;9.126;2023-02-18T20:57:02;99250.91;;;14.90;59.40
60820;BME280;46641;48.904;9.126;2023-02-18T21:01:52;99251.22;;;14.87;59.50
60820;BME280;46641;48.904;9.126;2023-02-18T21:06:43;99242.66;;;14.85;59.76
60820;BME280;46641;48.904;9.126;2023-02-18T21:11:36;99247.56;;;14.80;59.66
60820;BME280;46641;48.904;9.126;2023-02-18T21:16:28;99245.63;;;14.82;59.66
60820;BME280;46641;48.904;9.126;2023-02-18T21:21:21;99246.44;;;14.83;59.49
60820;BME280;46641;48.904;9.126;2023-02-18T21:26:20;99247.41;;;14.82;59.59
60820;BME280;46641;48.904;9.126;2023-02-18T21:31:17;99236.66;;;14.75;59.93
60820;BME280;46641;48.904;9.126;2023-02-18T21:36:08;99249.19;;;14.73;59.93
60820;BME280;46641;48.904;9.126;2023-02-18T21:40:58;99238.78;;;14.71;59.89
60820;BME280;46641;48.904;9.126;2023-02-18T21:45:48;99236.47;;;14.68;60.17
60820;BME280;46641;48.904;9.126;2023-02-18T21:50:38;99237.94;;;14.63;60.31
60820;BME280;46641;48.904;9.126;2023-02-18T21:55:29;99232.28;;;14.58;60.28
60820;BME280;46641;48.904;9.126;2023-02-18T22:00:19;99236.56;;;14.59;60.45
60820;BME280;46641;48.904;9.126;2023-02-18T22:05:11;99240.34;;;14.56;60.44
60820;BME280;46641;48.904;9.126;2023-02-18T22:10:01;99223.69;;;14.56;60.38
60820;BME280;46641;48.904;9.126;2023-02-18T22:14:52;99226.03;;;14.59;60.34
60820;BME280;46641;48.904;9.126;2023-02-18T22:19:42;99233.09;;;14.58;60.22
60820;BME280;46641;48.904;9.126;2023-02-18T22:24:33;99221.91;;;14.56;60.24
60820;BME280;46641;48.904;9.126;2023-02-18T22:29:23;99224.31;;;14.49;60.42
60820;BME280;46641;48.904;9.126;2023-02-18T22:34:14;99222.50;;;14.50;60.25
60820;BME280;46641;48.904;9.126;2023-02-18T22:39:05;99211.81;;;14.52;60.23
60820;BME280;46641;48.904;9.126;2023-02-18T22:43:59;99201.16;;;14.53;60.34
60820;BME280;46641;48.904;9.126;2023-02-18T22:48:50;99201.56;;;14.48;60.31
60820;BME280;46641;48.904;9.126;2023-02-18T22:53:42;99205.19;;;14.47;60.44
60820;BME280;46641;48.904;9.126;2023-02-18T22:58:33;99197.44;;;14.46;60.44
60820;BME280;46641;48.904;9.126;2023-02-18T23:03:25;99190.53;;;14.45;60.29
60820;BME280;46641;48.904;9.126;2023-02-18T23:08:15;99181.63;;;14.46;60.54
60820;BME280;46641;48.904;9.126;2023-02-18T23:13:06;99178.69;;;14.49;60.21
60820;BME280;46641;48.904;9.126;2023-02-18T23:17:56;99181.22;;;14.51;60.18
60820;BME280;46641;48.904;9.126;2023-02-18T23:22:46;99163.59;;;14.51;59.98
60820;BME280;46641;48.904;9.126;2023-02-18T23:27:36;99175.63;;;14.54;59.81
60820;BME280;46641;48.904;9.126;2023-02-18T23:32:27;99167.06;;;14.52;60.07
60820;BME280;46641;48.904;9.126;2023-02-18T23:37:19;99167.06;;;14.52;60.00
60820;BME280;46641;48.904;9.126;2023-02-18T23:42:32;99154.88;;;14.51;59.81
60820;BME280;46641;48.904;9.126;2023-02-18T23:47:23;99163.59;;;14.51;59.47
60820;BME280;46641;48.904;9.126;2023-02-18T23:52:13;99153.19;;;14.49;59.83
60820;BME280;46641;48.904;9.126;2023-02-18T23:57:03;99141.00;;;14.48;59.78
